Moody AFB, Georgia
Current Conditions -  °F | °C
As of 12:15 PM on Sunday 23 Nov 2014 (Local Time) from KVAD Reporting Station
Light Rain Light Rain  
Wind Chill: 22°   Ceiling: 600
Heat Index: 22°   Visibility: 10mi
Dew Point: 21°   Wind: 9mph
Humidity: 94%   Direction: 160°SSE
Pressure: 29.89"   Gusts: NA
Location:  30.9753°N, 83.2042°W
Report Text: KVAD 231715Z AUTO 16008KT 10SM -RA OVC006 22/21 A2989 RMK AO2 RAB1713 $
Loading
Personal Weather Stations






























Interactive Weather Map New forecast layout! Learn more

10-Day Weather Forecast

Advertisements
Track Severe Weather on mobile